Terminal Aerodrome Forecast
Issued by NWS

Home | Current Version | Previous Version | Text Only | Print | Product List | Glossary On
Versions: 1 2 3 4 5 6 7 8 9 10 11 12 13 14 15 16 17 18 19 20 21
503
FTUS43 KSGF 011722
TAFJLN
TAF
KJLN 011722Z 0118/0218 28010KT P6SM SCT200
     FM012300 31009KT P6SM BKN110
     FM020300 35005KT P6SM BKN100
     FM020500 01009KT P6SM BKN070
     FM020700 02009KT P6SM BKN015
     FM020800 02007KT P6SM BKN010
     FM020900 03005KT P6SM BKN008
     FM021600 35007KT P6SM OVC015=

USA.gov is the U.S. government's official web portal to all federal, state and local government web resources and services.